createdAt,value
2023-04-20T00:05:26.250Z,100661.44
2023-04-20T00:11:02.212Z,100654.66
2023-04-20T00:16:12.483Z,100650.53
2023-04-20T00:21:12.928Z,100648.91
2023-04-20T00:26:11.018Z,100651.41
2023-04-20T00:31:16.999Z,100649.56
2023-04-20T00:36:18.155Z,100648.06
2023-04-20T00:41:31.405Z,100648.19
2023-04-20T00:46:38.797Z,100647.06
2023-04-20T00:51:41.389Z,100648.91
2023-04-20T00:56:58.528Z,100658.00
2023-04-20T01:02:13.726Z,100654.88
2023-04-20T01:07:18.655Z,100638.22
2023-04-20T01:12:26.325Z,100647.28
2023-04-20T01:17:32.161Z,100641.50
2023-04-20T01:23:00.745Z,100639.19
2023-04-20T01:28:05.746Z,100636.66
2023-04-20T01:33:13.099Z,100632.81
2023-04-20T01:38:58.523Z,100625.16
2023-04-20T01:44:14.723Z,100614.09
2023-04-20T01:49:27.495Z,100617.38
2023-04-20T01:54:46.009Z,100623.34
2023-04-20T02:00:12.070Z,100626.56
2023-04-20T02:05:15.278Z,100617.81
2023-04-20T02:10:33.226Z,100613.91
2023-04-20T02:15:58.216Z,100621.34
2023-04-20T02:20:55.866Z,100623.13
2023-04-20T02:26:14.903Z,100624.88
2023-04-20T02:31:51.697Z,100622.97
2023-04-20T02:37:04.830Z,100624.19
2023-04-20T02:42:54.168Z,100625.31
2023-04-20T02:48:24.984Z,100623.28
2023-04-20T02:54:16.556Z,100629.13
2023-04-20T02:59:29.691Z,100630.56
2023-04-20T03:04:59.017Z,100631.66
2023-04-20T03:16:12.962Z,100640.28
2023-04-20T03:21:23.754Z,100643.19
2023-04-20T03:26:47.451Z,100643.88
2023-04-20T03:32:39.298Z,100641.31
2023-04-20T03:38:27.040Z,100649.34
2023-04-20T03:49:39.207Z,100646.19
2023-04-20T03:54:57.077Z,100636.06
2023-04-20T04:00:13.998Z,100646.69
2023-04-20T04:05:49.565Z,100648.00
2023-04-20T04:11:04.975Z,100649.47
2023-04-20T04:16:48.493Z,100656.97
2023-04-20T04:22:13.847Z,100662.94
2023-04-20T04:27:58.728Z,100662.94
2023-04-20T04:33:15.846Z,100675.78
2023-04-20T04:38:33.223Z,100677.16
2023-04-20T04:43:46.053Z,100679.34
2023-04-20T04:55:27.120Z,100682.94
2023-04-20T05:00:42.298Z,100695.88
2023-04-20T05:06:08.204Z,100690.63
2023-04-20T05:11:31.052Z,100689.53
2023-04-20T05:16:40.016Z,100703.00
2023-04-20T05:21:50.842Z,100700.94
2023-04-20T05:26:58.976Z,100712.59
2023-04-20T05:32:52.641Z,100718.19
2023-04-20T05:38:38.572Z,100725.38
2023-04-20T05:44:16.998Z,100730.72
2023-04-20T05:49:39.490Z,100733.16
2023-04-20T05:54:59.629Z,100732.16
2023-04-20T06:00:23.865Z,100738.53
2023-04-20T06:05:40.859Z,100739.44
2023-04-20T06:11:16.246Z,100731.50
2023-04-20T06:17:29.834Z,100737.13
2023-04-20T08:48:26.530Z,100775.94
2023-04-20T09:38:38.710Z,100770.34
2023-04-20T09:56:33.093Z,100770.66
2023-04-20T10:01:49.543Z,100771.25
2023-04-20T10:07:17.691Z,100766.16
2023-04-20T10:12:50.090Z,100765.75
2023-04-20T10:18:22.140Z,100749.78
2023-04-20T10:23:25.075Z,100761.28
2023-04-20T10:28:30.224Z,100743.38
2023-04-20T10:33:40.613Z,100746.72
2023-04-20T10:38:57.967Z,100744.53
2023-04-20T10:44:29.330Z,100732.22
2023-04-20T10:49:55.063Z,100734.88
2023-04-20T11:01:50.542Z,100738.78
2023-04-20T11:07:43.615Z,100725.50
2023-04-20T11:12:52.981Z,100717.25
2023-04-20T11:23:54.662Z,100712.84
2023-04-20T11:29:14.860Z,100712.97
2023-04-20T11:41:11.893Z,100698.78
2023-04-20T11:48:14.015Z,100694.97
2023-04-20T12:27:25.525Z,100668.22
2023-04-20T14:28:56.851Z,100616.84
2023-04-20T14:35:33.905Z,100628.50
2023-04-20T14:41:27.185Z,100622.06
2023-04-20T16:50:40.225Z,100680.25
2023-04-20T17:36:01.884Z,100730.00
2023-04-20T17:54:17.372Z,100743.41
2023-04-20T18:00:38.709Z,100763.38
2023-04-20T18:06:52.019Z,100771.50
2023-04-20T18:18:48.746Z,100778.06
2023-04-20T18:55:12.200Z,100731.44
2023-04-20T19:19:48.464Z,100762.19
2023-04-20T20:05:53.096Z,100781.38
2023-04-20T20:43:14.633Z,100785.91
2023-04-20T21:01:21.937Z,100781.56
2023-04-20T21:06:01.195Z,100775.44
2023-04-20T21:11:27.192Z,100751.22
2023-04-20T21:16:40.003Z,100738.00
2023-04-20T21:22:17.157Z,100731.16
2023-04-20T21:27:27.429Z,100750.34
2023-04-20T21:32:28.456Z,100744.13
2023-04-20T21:37:44.595Z,100735.09
2023-04-20T21:42:48.627Z,100723.00
2023-04-20T21:47:56.321Z,100711.41
2023-04-20T21:53:01.156Z,100695.69
2023-04-20T22:04:10.831Z,100705.13
2023-04-20T22:09:26.096Z,100695.44
2023-04-20T22:14:45.980Z,100714.97
2023-04-20T22:19:54.719Z,100715.84
2023-04-20T22:25:15.424Z,100705.63
2023-04-20T22:30:22.046Z,100691.28
2023-04-20T22:35:29.921Z,100692.09
2023-04-20T22:40:40.957Z,100682.69
2023-04-20T22:45:51.091Z,100693.22
2023-04-20T22:50:52.968Z,100683.34
2023-04-20T22:55:50.398Z,100672.63
2023-04-20T23:02:06.329Z,100683.66
2023-04-20T23:06:26.970Z,100682.16
2023-04-20T23:11:28.846Z,100687.09
2023-04-20T23:16:48.949Z,100693.41
2023-04-20T23:22:06.084Z,100700.59
2023-04-20T23:27:15.846Z,100701.16
2023-04-20T23:32:18.333Z,100704.94
2023-04-20T23:37:24.660Z,100683.06
2023-04-20T23:42:28.245Z,100668.56
2023-04-20T23:47:25.636Z,100653.75
2023-04-20T23:52:30.642Z,100651.00
2023-04-20T23:57:34.909Z,100632.88
